Pedhoulas Farmer — 5BRX3 — position and weather

sailwx.info

Track history (hours):
 
Tides and Currents Weather Stations Pressure Air Temp Water Temp Dewpoint Dewpoint Depression Visibility Wind Speed Wind Dir Waves Ship Positions

Pedhoulas Farmer

Last reported at 2018-Jun-13 05:28 UTC. Time now 2018-Jun-23 19:13 UTC.
Position N 29°58' W 090°17'.
Warning: this ship's position is 10 days out of date.

Length 229 m; draft 7.9 m.

Type: Cargo ship. MMSI: 210156000.

Date/timePositionNaut miles runAvg speedWind from/ knotsBaromVisibWave heightAir tempDewpointWater temp
2018-Jun-13 05:28N 29°58' W 090°17'1 1.3
2018-Jun-13 05:00N 29°58' W 090°16'  
2018-Jun-09 00:11N 25°17' W 079°33'211.6
2018-Jun-09 00:00N 25°19' W 079°32'611.6
2018-Jun-08 23:30N 25°25' W 079°32'611.4
2018-Jun-08 23:00N 25°31' W 079°31'611.2
2018-Jun-08 22:29N 25°36' W 079°30'611.5
2018-Jun-08 22:00N 25°42' W 079°30'2311.6
2018-Jun-08 20:02N 26°05' W 079°27'011.4
2018-Jun-08 20:00N 26°05' W 079°27'611.3
2018-Jun-08 19:30N 26°10' W 079°27'610.9
2018-Jun-08 18:58N 26°16' W 079°26'810.6
2018-Jun-08 18:11N 26°25' W 079°25'210.5
2018-Jun-08 18:00N 26°26' W 079°25'1010.4
2018-Jun-08 17:02N 26°36' W 079°24'010.6
2018-Jun-08 16:59N 26°37' W 079°24'  
Track history (hours):
 
Tides and Currents Weather Stations Pressure Air Temp Water Temp Dewpoint Dewpoint Depression Visibility Wind Speed Wind Dir Waves Ship Positions

Pedhoulas Farmer

Last reported at 2018-Jun-13 05:28 UTC. Time now 2018-Jun-23 19:13 UTC.
Position N 29°58' W 090°17'.
Warning: this ship's position is 10 days out of date.

Length 229 m; draft 7.9 m.

Type: Cargo ship. MMSI: 210156000.

Date/timePositionNaut miles runAvg speedWind from/ knotsBaromVisibWave heightAir tempDewpointWater temp
2018-Jun-13 05:28N 29°58' W 090°17'1 1.3
2018-Jun-13 05:00N 29°58' W 090°16'  
2018-Jun-09 00:11N 25°17' W 079°33'211.6
2018-Jun-09 00:00N 25°19' W 079°32'611.6
2018-Jun-08 23:30N 25°25' W 079°32'611.4
2018-Jun-08 23:00N 25°31' W 079°31'611.2
2018-Jun-08 22:29N 25°36' W 079°30'611.5
2018-Jun-08 22:00N 25°42' W 079°30'2311.6
2018-Jun-08 20:02N 26°05' W 079°27'011.4
2018-Jun-08 20:00N 26°05' W 079°27'611.3
2018-Jun-08 19:30N 26°10' W 079°27'610.9
2018-Jun-08 18:58N 26°16' W 079°26'810.6
2018-Jun-08 18:11N 26°25' W 079°25'210.5
2018-Jun-08 18:00N 26°26' W 079°25'1010.4
2018-Jun-08 17:02N 26°36' W 079°24'010.6
2018-Jun-08 16:59N 26°37' W 079°24'  

Dump ship's entire track history